createdAt,value
2023-01-19T00:01:15.880Z,4.75
2023-01-19T00:03:44.374Z,6.05
2023-01-19T00:06:13.316Z,4.90
2023-01-19T00:08:44.841Z,6.05
2023-01-19T00:11:13.874Z,6.57
2023-01-19T00:13:42.385Z,3.78
2023-01-19T00:16:11.469Z,1.80
2023-01-19T00:18:40.030Z,4.10
2023-01-19T00:21:08.536Z,2.67
2023-01-19T00:23:37.093Z,3.58
2023-01-19T00:26:08.783Z,6.43
2023-01-19T00:28:37.722Z,3.45
2023-01-19T00:31:06.350Z,4.18
2023-01-19T00:33:34.893Z,2.72
2023-01-19T00:36:03.730Z,3.03
2023-01-19T00:38:32.265Z,6.53
2023-01-19T00:41:00.859Z,4.68
2023-01-19T00:43:30.761Z,2.63
2023-01-19T00:45:59.293Z,6.05
2023-01-19T00:48:27.843Z,2.28
2023-01-19T00:50:56.427Z,3.17
2023-01-19T00:53:24.970Z,2.78
2023-01-19T00:55:53.535Z,4.28
2023-01-19T00:58:22.790Z,5.90
2023-01-19T01:00:57.567Z,1.98
2023-01-19T01:03:28.294Z,2.60
2023-01-19T01:05:56.997Z,5.30
2023-01-19T01:08:25.582Z,3.72
2023-01-19T01:10:54.183Z,6.03
2023-01-19T01:13:26.189Z,4.38
2023-01-19T01:15:58.289Z,3.75
2023-01-19T01:18:27.128Z,4.63
2023-01-19T01:21:02.350Z,3.63
2023-01-19T01:23:31.066Z,3.38
2023-01-19T01:25:59.636Z,7.68
2023-01-19T01:28:28.547Z,3.70
2023-01-19T01:30:58.546Z,4.57
2023-01-19T01:33:40.802Z,3.83
2023-01-19T01:36:11.340Z,4.35
2023-01-19T01:41:09.233Z,6.85
2023-01-19T01:43:46.622Z,5.32
2023-01-19T01:46:18.116Z,2.45
2023-01-19T01:48:52.047Z,8.43
2023-01-19T01:51:25.765Z,9.32
2023-01-19T01:54:08.056Z,6.65
2023-01-19T01:56:39.513Z,3.78
2023-01-19T01:59:10.685Z,6.47
2023-01-19T02:01:58.455Z,4.00
2023-01-19T02:04:28.491Z,3.97
2023-01-19T02:07:14.326Z,7.03
2023-01-19T02:10:00.348Z,3.72
2023-01-19T02:12:46.905Z,6.25
2023-01-19T02:15:18.529Z,9.50
2023-01-19T02:17:48.803Z,6.20
2023-01-19T02:20:18.250Z,7.40
2023-01-19T02:22:50.180Z,7.93
2023-01-19T02:25:21.418Z,5.47
2023-01-19T02:27:51.020Z,5.80
2023-01-19T02:30:20.132Z,10.02
2023-01-19T02:32:48.815Z,6.97
2023-01-19T02:35:18.524Z,8.18
2023-01-19T02:40:19.842Z,7.18
2023-01-19T02:42:51.979Z,5.47
2023-01-19T02:45:35.100Z,10.10
2023-01-19T02:48:05.089Z,7.72
2023-01-19T02:50:46.382Z,3.80
2023-01-19T02:53:39.743Z,4.65
2023-01-19T02:56:31.166Z,8.07
2023-01-19T03:01:41.543Z,5.30
2023-01-19T03:04:17.741Z,9.55
2023-01-19T03:06:51.184Z,8.23
2023-01-19T03:09:28.468Z,8.45
2023-01-19T03:12:10.537Z,7.82
2023-01-19T03:14:44.458Z,7.75
2023-01-19T03:17:14.021Z,7.78
2023-01-19T03:19:44.950Z,9.35
2023-01-19T03:22:16.448Z,6.70
2023-01-19T03:24:47.322Z,12.30
2023-01-19T03:27:20.066Z,5.72
2023-01-19T03:29:54.490Z,7.43
2023-01-19T03:32:29.854Z,8.80
2023-01-19T03:35:01.983Z,11.10
2023-01-19T03:37:33.111Z,6.85
2023-01-19T03:40:02.017Z,12.07
2023-01-19T03:42:30.975Z,9.70
2023-01-19T03:45:02.475Z,8.75
2023-01-19T03:47:31.143Z,8.43
2023-01-19T03:50:03.051Z,11.63
2023-01-19T03:52:33.736Z,13.20
2023-01-19T03:55:03.946Z,14.88
2023-01-19T03:57:32.911Z,11.65
2023-01-19T04:00:03.103Z,22.65
2023-01-19T04:02:40.509Z,24.38
2023-01-19T04:05:09.964Z,27.55
2023-01-19T04:07:38.505Z,30.17
2023-01-19T04:10:12.685Z,24.25
2023-01-19T04:12:41.265Z,26.08
2023-01-19T04:15:11.484Z,36.80
2023-01-19T04:17:40.704Z,26.48
2023-01-19T04:20:23.613Z,28.92
2023-01-19T04:23:00.781Z,38.30
2023-01-19T04:25:30.188Z,29.35
2023-01-19T04:27:59.197Z,24.17
2023-01-19T04:30:29.293Z,35.13
2023-01-19T04:33:00.149Z,30.25
2023-01-19T04:35:32.662Z,31.67
2023-01-19T04:38:01.177Z,29.65
2023-01-19T04:40:29.755Z,29.08
2023-01-19T04:42:58.490Z,26.80
2023-01-19T04:45:28.709Z,30.90
2023-01-19T04:47:57.296Z,30.30
2023-01-19T04:50:26.138Z,29.90
2023-01-19T04:52:54.693Z,31.80
2023-01-19T04:55:23.431Z,30.65
2023-01-19T04:57:52.017Z,30.75
2023-01-19T05:00:22.348Z,31.38
2023-01-19T05:02:52.331Z,32.35
2023-01-19T05:05:20.919Z,28.05
2023-01-19T05:07:49.484Z,27.17
2023-01-19T05:10:18.439Z,28.02
2023-01-19T05:12:46.963Z,29.23
2023-01-19T05:15:15.501Z,31.98
2023-01-19T05:17:44.309Z,28.95
2023-01-19T05:20:16.416Z,26.77
2023-01-19T05:22:49.597Z,25.73
2023-01-19T05:25:18.831Z,24.90
2023-01-19T05:27:47.498Z,26.48
2023-01-19T05:30:16.765Z,31.40
2023-01-19T05:32:45.465Z,25.45
2023-01-19T05:35:20.189Z,20.35
2023-01-19T05:37:53.591Z,28.77
2023-01-19T05:40:22.195Z,26.25
2023-01-19T05:42:50.700Z,24.83
2023-01-19T05:45:19.289Z,24.05
2023-01-19T05:47:47.828Z,24.80
2023-01-19T05:50:18.109Z,26.10
2023-01-19T05:52:46.647Z,29.35
2023-01-19T05:55:16.655Z,24.95
2023-01-19T05:57:45.151Z,26.23
2023-01-19T06:00:15.035Z,26.35
2023-01-19T06:02:43.720Z,22.35
2023-01-19T06:05:12.364Z,24.90
2023-01-19T06:07:42.326Z,22.95
2023-01-19T06:10:12.149Z,25.13
2023-01-19T06:15:10.495Z,22.97
2023-01-19T06:17:39.198Z,23.60
2023-01-19T06:20:08.827Z,24.02
2023-01-19T06:22:37.545Z,21.52
2023-01-19T06:25:08.264Z,21.02
2023-01-19T06:27:36.803Z,22.08
2023-01-19T06:30:06.704Z,20.40
2023-01-19T06:32:35.323Z,23.58
2023-01-19T06:35:03.843Z,19.67
2023-01-19T06:37:32.425Z,22.88
2023-01-19T06:40:00.925Z,19.00
2023-01-19T06:42:30.923Z,20.48
2023-01-19T06:44:59.494Z,21.25
2023-01-19T06:47:28.017Z,21.10
2023-01-19T06:49:56.779Z,20.98
2023-01-19T06:52:25.325Z,20.10
2023-01-19T06:54:53.912Z,18.00
2023-01-19T06:57:26.007Z,17.08
2023-01-19T06:59:55.988Z,20.08
2023-01-19T07:02:26.783Z,15.75
2023-01-19T07:04:56.780Z,15.90
2023-01-19T07:07:25.345Z,22.00
2023-01-19T07:09:54.379Z,17.73
2023-01-19T07:12:23.072Z,18.27
2023-01-19T07:14:52.872Z,16.83
2023-01-19T07:17:22.946Z,15.73
2023-01-19T07:19:51.508Z,18.65
2023-01-19T07:22:20.033Z,21.10
2023-01-19T07:24:48.558Z,17.75
2023-01-19T07:27:17.199Z,20.88
2023-01-19T07:29:45.786Z,15.05
2023-01-19T07:32:14.945Z,15.73
2023-01-19T07:34:45.413Z,15.07
2023-01-19T07:37:14.002Z,15.38
2023-01-19T07:39:42.568Z,10.90
2023-01-19T07:42:11.125Z,14.75
2023-01-19T07:44:39.778Z,13.15
2023-01-19T07:47:11.349Z,20.88
2023-01-19T07:49:40.197Z,15.35
2023-01-19T07:52:10.316Z,17.23
2023-01-19T07:54:39.358Z,20.70
2023-01-19T07:57:07.986Z,14.95
2023-01-19T07:59:36.657Z,15.00
2023-01-19T08:02:05.821Z,21.67
2023-01-19T08:04:34.462Z,17.60
2023-01-19T08:07:03.957Z,17.23
2023-01-19T08:09:33.861Z,15.43
2023-01-19T08:12:02.744Z,16.30
2023-01-19T08:14:31.366Z,17.87
2023-01-19T08:17:01.236Z,15.05
2023-01-19T08:21:59.182Z,17.58
2023-01-19T08:24:29.241Z,16.15
2023-01-19T08:29:32.081Z,22.17
2023-01-19T08:34:34.865Z,14.27
2023-01-19T08:37:03.528Z,12.30
2023-01-19T08:39:33.410Z,12.43
2023-01-19T08:42:03.357Z,15.65
2023-01-19T08:44:31.941Z,14.15
2023-01-19T08:47:01.321Z,14.52
2023-01-19T08:49:30.615Z,14.85
2023-01-19T08:51:59.167Z,13.60
2023-01-19T08:54:27.778Z,15.38
2023-01-19T08:56:56.474Z,36.40
2023-01-19T08:59:26.410Z,11.50
2023-01-19T09:01:55.217Z,14.55
2023-01-19T09:04:25.245Z,16.27
2023-01-19T09:06:54.243Z,13.52
2023-01-19T09:09:22.841Z,13.57
2023-01-19T09:11:51.429Z,16.15
2023-01-19T09:14:19.976Z,19.75
2023-01-19T09:16:50.014Z,14.18
2023-01-19T09:19:18.724Z,14.45
2023-01-19T09:21:47.235Z,13.73
2023-01-19T09:24:15.773Z,12.57
2023-01-19T09:26:44.393Z,27.42
2023-01-19T09:29:12.881Z,11.45
2023-01-19T09:31:41.526Z,12.45
2023-01-19T09:34:12.912Z,13.15
2023-01-19T09:36:41.598Z,12.55
2023-01-19T09:39:11.208Z,13.13
2023-01-19T09:41:43.373Z,32.60
2023-01-19T09:44:19.883Z,25.45
2023-01-19T09:46:48.558Z,16.85
2023-01-19T09:49:23.820Z,71.68
2023-01-19T09:51:54.184Z,26.95
2023-01-19T09:54:31.064Z,17.40
2023-01-19T09:57:01.412Z,11.48
2023-01-19T09:59:32.732Z,16.30
2023-01-19T10:02:17.607Z,15.15
2023-01-19T10:04:55.394Z,24.45
2023-01-19T10:07:42.171Z,16.63
2023-01-19T10:10:21.689Z,14.38
2023-01-19T10:13:05.877Z,9.98
2023-01-19T10:15:48.434Z,14.00
2023-01-19T10:18:31.627Z,43.53
2023-01-19T10:21:08.280Z,12.85
2023-01-19T10:23:43.158Z,93.50
2023-01-19T10:26:16.655Z,31.33
2023-01-19T10:28:48.371Z,17.90
2023-01-19T10:31:20.420Z,13.25
2023-01-19T10:33:50.328Z,13.35
2023-01-19T10:38:51.057Z,16.65
2023-01-19T10:41:24.388Z,15.73
2023-01-19T10:44:01.314Z,11.23
2023-01-19T10:46:36.600Z,13.35
2023-01-19T10:49:06.037Z,14.68
2023-01-19T10:51:47.351Z,15.15
2023-01-19T10:54:16.441Z,17.20
2023-01-19T10:56:51.598Z,21.42
2023-01-19T10:59:36.311Z,12.75
2023-01-19T11:02:16.337Z,20.02
2023-01-19T11:04:47.712Z,14.57
2023-01-19T11:07:23.418Z,17.45
2023-01-19T11:10:11.668Z,17.35
2023-01-19T11:12:43.193Z,18.25
2023-01-19T11:15:17.539Z,15.48
2023-01-19T11:17:48.765Z,55.95
2023-01-19T11:20:23.117Z,85.35
2023-01-19T11:23:08.518Z,21.00
2023-01-19T11:25:38.718Z,72.18
2023-01-19T11:28:07.470Z,105.18
2023-01-19T11:30:36.866Z,44.70
2023-01-19T11:33:07.407Z,110.93
2023-01-19T11:35:39.645Z,66.93
2023-01-19T11:38:18.422Z,42.75
2023-01-19T11:40:54.475Z,23.10
2023-01-19T11:43:25.468Z,17.88
2023-01-19T11:45:54.872Z,109.30
2023-01-19T11:48:30.679Z,35.08
2023-01-19T11:51:04.510Z,43.60
2023-01-19T11:53:37.100Z,18.15
2023-01-19T11:56:11.179Z,16.60
2023-01-19T11:58:42.441Z,20.73
2023-01-19T12:01:21.228Z,18.63
2023-01-19T12:03:57.133Z,25.57
2023-01-19T12:06:31.514Z,48.42
2023-01-19T12:09:06.827Z,39.22
2023-01-19T12:11:40.330Z,24.02
2023-01-19T12:14:16.894Z,21.38
2023-01-19T12:16:46.456Z,14.50
2023-01-19T12:19:19.372Z,14.63
2023-01-19T12:21:49.235Z,18.52
2023-01-19T12:26:57.399Z,95.88
2023-01-19T12:29:32.613Z,42.72
2023-01-19T12:32:32.917Z,27.60
2023-01-19T12:35:03.012Z,27.75
2023-01-19T12:37:38.066Z,20.92
2023-01-19T12:40:27.256Z,17.65
2023-01-19T12:43:01.893Z,17.52
2023-01-19T12:45:35.708Z,17.85
2023-01-19T12:48:08.991Z,15.10
2023-01-19T12:50:39.559Z,16.33
2023-01-19T12:53:20.608Z,14.20
2023-01-19T12:56:01.252Z,18.70
2023-01-19T12:58:30.478Z,12.38
2023-01-19T13:01:16.389Z,11.18
2023-01-19T13:03:48.032Z,16.95
2023-01-19T13:06:16.787Z,17.05
2023-01-19T13:09:03.199Z,23.38
2023-01-19T13:11:34.721Z,21.45
2023-01-19T13:14:36.232Z,18.83
2023-01-19T13:17:24.379Z,20.67
2023-01-19T13:20:01.772Z,21.02
2023-01-19T13:23:21.314Z,24.90
2023-01-19T13:26:05.009Z,33.38
2023-01-19T13:28:41.384Z,30.13
2023-01-19T13:31:11.228Z,28.50
2023-01-19T13:33:47.338Z,33.42
2023-01-19T13:36:23.406Z,26.50
2023-01-19T13:38:53.595Z,21.90
2023-01-19T13:41:25.352Z,20.48
2023-01-19T13:44:01.196Z,18.92
2023-01-19T13:46:33.659Z,15.80
2023-01-19T13:49:14.772Z,15.63
2023-01-19T13:51:43.479Z,12.82
2023-01-19T13:54:17.669Z,14.13
2023-01-19T13:56:50.169Z,12.77
2023-01-19T13:59:20.368Z,14.15
2023-01-19T14:01:51.215Z,11.30
2023-01-19T14:04:31.509Z,13.55
2023-01-19T14:07:02.824Z,13.40
2023-01-19T14:09:31.891Z,14.10
2023-01-19T14:12:14.172Z,12.70
2023-01-19T14:14:46.853Z,11.57
2023-01-19T14:17:24.256Z,14.23
2023-01-19T14:19:54.240Z,10.20
2023-01-19T14:22:23.156Z,11.52
2023-01-19T14:24:51.749Z,10.80
2023-01-19T14:27:25.436Z,13.32
2023-01-19T14:29:55.655Z,9.77
2023-01-19T14:32:27.980Z,11.82
2023-01-19T14:35:15.206Z,14.95
2023-01-19T14:37:49.066Z,15.90
2023-01-19T14:40:20.388Z,11.70
2023-01-19T14:42:53.989Z,11.85
2023-01-19T14:45:27.196Z,14.00
2023-01-19T14:47:58.300Z,12.48
2023-01-19T14:50:30.272Z,12.75
2023-01-19T14:53:02.290Z,14.07
2023-01-19T14:55:36.965Z,16.00
2023-01-19T14:58:14.228Z,15.98
2023-01-19T15:00:48.612Z,18.88
2023-01-19T15:03:18.782Z,13.25
2023-01-19T15:05:48.723Z,15.65
2023-01-19T15:08:19.940Z,11.85
2023-01-19T15:10:48.666Z,14.40
2023-01-19T15:13:22.051Z,15.50
2023-01-19T15:15:52.777Z,12.57
2023-01-19T15:18:26.502Z,16.63
2023-01-19T15:20:57.105Z,15.45
2023-01-19T15:23:27.904Z,20.90
2023-01-19T15:26:01.382Z,22.02
2023-01-19T15:28:30.109Z,19.48
2023-01-19T15:31:01.386Z,21.58
2023-01-19T15:33:31.684Z,16.20
2023-01-19T15:36:00.353Z,19.52
2023-01-19T15:38:29.299Z,21.05
2023-01-19T15:41:00.046Z,21.00
2023-01-19T15:43:28.729Z,27.38
2023-01-19T15:46:03.299Z,23.83
2023-01-19T15:48:32.094Z,27.08
2023-01-19T15:51:00.970Z,28.70
2023-01-19T15:53:30.661Z,34.67
2023-01-19T15:55:59.283Z,29.85
2023-01-19T15:58:28.032Z,23.05
2023-01-19T16:00:57.984Z,24.58
2023-01-19T16:03:28.137Z,29.05
2023-01-19T16:05:56.894Z,39.78
2023-01-19T16:08:25.627Z,41.80
2023-01-19T16:10:54.229Z,39.92
2023-01-19T16:13:22.817Z,36.03
2023-01-19T16:15:51.438Z,31.02
2023-01-19T16:18:20.191Z,23.58
2023-01-19T16:20:51.509Z,25.63
2023-01-19T16:23:20.673Z,24.95
2023-01-19T16:25:58.525Z,22.65
2023-01-19T16:28:28.532Z,20.52
2023-01-19T16:30:57.426Z,18.92
2023-01-19T16:33:26.382Z,15.80
2023-01-19T16:35:56.708Z,21.85
2023-01-19T16:38:25.620Z,19.08
2023-01-19T16:40:54.429Z,19.63
2023-01-19T16:43:23.169Z,24.65
2023-01-19T16:46:00.013Z,20.52
2023-01-19T16:48:30.050Z,19.60
2023-01-19T16:51:05.221Z,23.70
2023-01-19T16:53:35.673Z,18.65
2023-01-19T16:56:07.694Z,19.77
2023-01-19T16:58:38.932Z,19.13
2023-01-19T17:01:18.252Z,22.50
2023-01-19T17:03:48.766Z,23.52
2023-01-19T17:06:22.900Z,26.42
2023-01-19T17:08:52.586Z,26.25
2023-01-19T17:11:24.157Z,27.77
2023-01-19T17:13:55.937Z,30.10
2023-01-19T17:16:26.039Z,41.20
2023-01-19T17:18:55.356Z,37.00
2023-01-19T17:21:25.764Z,114.53
2023-01-19T17:23:56.176Z,92.65
2023-01-19T17:26:28.499Z,75.05
2023-01-19T17:29:02.219Z,48.85
2023-01-19T17:31:32.697Z,38.20
2023-01-19T17:34:02.476Z,36.55
2023-01-19T17:36:34.521Z,28.80
2023-01-19T17:39:08.530Z,25.15
2023-01-19T17:41:37.754Z,33.50
2023-01-19T17:44:08.244Z,24.75
2023-01-19T17:46:38.656Z,26.33
2023-01-19T17:49:09.413Z,24.30
2023-01-19T17:51:40.162Z,31.85
2023-01-19T17:54:08.993Z,31.65
2023-01-19T17:56:38.879Z,29.83
2023-01-19T17:59:08.355Z,31.77
2023-01-19T18:01:40.508Z,30.23
2023-01-19T18:04:10.390Z,32.60
2023-01-19T18:06:40.454Z,28.33
2023-01-19T18:09:09.705Z,28.92
2023-01-19T18:11:38.587Z,27.63
2023-01-19T18:14:07.595Z,28.03
2023-01-19T18:16:37.120Z,23.50
2023-01-19T18:19:05.940Z,31.83
2023-01-19T18:21:34.712Z,28.50
2023-01-19T18:24:06.946Z,27.38
2023-01-19T18:26:37.716Z,27.02
2023-01-19T18:29:06.795Z,26.58
2023-01-19T18:31:35.562Z,26.45
2023-01-19T18:34:04.207Z,30.55
2023-01-19T18:36:34.391Z,34.35
2023-01-19T18:39:05.039Z,32.15
2023-01-19T18:41:40.610Z,35.03
2023-01-19T18:44:09.880Z,31.50
2023-01-19T18:46:38.928Z,37.03
2023-01-19T18:49:07.836Z,35.10
2023-01-19T18:51:42.251Z,35.70
2023-01-19T18:54:12.791Z,32.58
2023-01-19T18:56:41.899Z,28.75
2023-01-19T18:59:10.916Z,28.17
2023-01-19T19:01:39.839Z,30.55
2023-01-19T19:04:08.664Z,30.83
2023-01-19T19:06:37.391Z,29.75
2023-01-19T19:09:06.752Z,22.50
2023-01-19T19:11:37.118Z,26.48
2023-01-19T19:14:06.139Z,25.30
2023-01-19T19:16:36.572Z,28.40
2023-01-19T19:19:06.124Z,28.30
2023-01-19T19:21:35.070Z,29.02
2023-01-19T19:24:06.879Z,29.60
2023-01-19T19:26:37.496Z,27.25
2023-01-19T19:29:10.539Z,26.63
2023-01-19T19:31:39.204Z,27.42
2023-01-19T19:34:09.176Z,32.97
2023-01-19T19:36:40.016Z,26.48
2023-01-19T19:39:10.136Z,29.25
2023-01-19T19:41:40.437Z,26.63
2023-01-19T19:44:12.851Z,27.58
2023-01-19T19:46:42.472Z,23.70
2023-01-19T19:49:11.508Z,26.33
2023-01-19T19:51:40.300Z,25.42
2023-01-19T19:54:08.886Z,26.67
2023-01-19T19:56:37.695Z,28.33
2023-01-19T19:59:08.881Z,30.33
2023-01-19T20:01:38.880Z,32.70
2023-01-19T20:04:09.691Z,35.67
2023-01-19T20:06:42.493Z,31.48
2023-01-19T20:09:12.918Z,32.92
2023-01-19T20:11:42.791Z,27.67
2023-01-19T20:16:42.079Z,31.52
2023-01-19T20:19:11.267Z,34.08
2023-01-19T20:21:43.571Z,33.33
2023-01-19T20:24:16.302Z,41.45
2023-01-19T20:26:49.356Z,39.60
2023-01-19T20:29:21.910Z,38.13
2023-01-19T20:31:53.401Z,32.53
2023-01-19T20:34:23.967Z,38.30
2023-01-19T20:36:54.062Z,38.30
2023-01-19T20:39:25.531Z,41.35
2023-01-19T20:41:54.542Z,45.97
2023-01-19T20:44:26.874Z,43.93
2023-01-19T20:46:57.266Z,50.75
2023-01-19T20:49:26.052Z,44.75
2023-01-19T20:51:55.231Z,47.10
2023-01-19T20:54:26.429Z,54.60
2023-01-19T20:56:55.646Z,41.85
2023-01-19T20:59:26.282Z,45.33
2023-01-19T21:01:55.847Z,48.28
2023-01-19T21:06:53.805Z,40.80
2023-01-19T21:09:23.110Z,44.38
2023-01-19T21:11:52.190Z,42.58
2023-01-19T21:14:23.147Z,47.70
2023-01-19T21:16:53.356Z,40.78
2023-01-19T21:19:23.558Z,44.50
2023-01-19T21:21:52.470Z,42.25
2023-01-19T21:24:21.025Z,41.07
2023-01-19T21:26:49.650Z,35.63
2023-01-19T21:29:18.348Z,40.83
2023-01-19T21:31:47.286Z,41.20
2023-01-19T21:34:18.157Z,38.83
2023-01-19T21:36:46.943Z,37.30
2023-01-19T21:39:17.459Z,40.03
2023-01-19T21:41:47.539Z,44.80
2023-01-19T21:44:17.026Z,46.50
2023-01-19T21:46:46.138Z,46.72
2023-01-19T21:49:19.223Z,55.05
2023-01-19T21:51:50.642Z,51.20
2023-01-19T21:54:19.772Z,51.85
2023-01-19T21:56:48.569Z,48.17
2023-01-19T21:59:20.203Z,47.35
2023-01-19T22:01:49.824Z,43.20
2023-01-19T22:04:21.127Z,44.78
2023-01-19T22:06:49.898Z,55.58
2023-01-19T22:09:18.691Z,43.15
2023-01-19T22:11:47.414Z,49.83
2023-01-19T22:14:15.971Z,45.78
2023-01-19T22:16:45.223Z,42.83
2023-01-19T22:19:15.640Z,42.22
2023-01-19T22:21:45.944Z,42.95
2023-01-19T22:24:14.528Z,40.88
2023-01-19T22:26:43.098Z,37.22
2023-01-19T22:29:14.395Z,42.00
2023-01-19T22:31:43.452Z,39.13
2023-01-19T22:34:13.831Z,40.25
2023-01-19T22:36:42.576Z,39.15
2023-01-19T22:39:15.481Z,36.00
2023-01-19T22:41:46.725Z,34.60
2023-01-19T22:44:20.978Z,38.05
2023-01-19T22:46:52.370Z,35.53
2023-01-19T22:49:21.417Z,36.53
2023-01-19T22:51:50.360Z,37.28
2023-01-19T22:54:21.432Z,39.95
2023-01-19T22:56:50.091Z,39.45
2023-01-19T22:59:18.754Z,42.10
2023-01-19T23:01:47.591Z,40.05
2023-01-19T23:04:17.299Z,44.53
2023-01-19T23:06:49.357Z,40.40
2023-01-19T23:09:20.031Z,44.78
2023-01-19T23:11:51.375Z,40.67
2023-01-19T23:14:22.259Z,38.85
2023-01-19T23:16:50.986Z,38.75
2023-01-19T23:19:20.096Z,35.67
2023-01-19T23:21:52.162Z,35.90
2023-01-19T23:24:22.326Z,37.85
2023-01-19T23:26:51.586Z,34.72
2023-01-19T23:29:26.316Z,32.30
2023-01-19T23:31:56.092Z,35.35
2023-01-19T23:36:52.964Z,31.45
2023-01-19T23:39:23.634Z,29.75
2023-01-19T23:41:52.267Z,29.60
2023-01-19T23:44:21.073Z,34.75
2023-01-19T23:46:49.628Z,35.27
2023-01-19T23:49:18.298Z,37.25
2023-01-19T23:51:46.840Z,37.15
2023-01-19T23:54:15.438Z,40.67
2023-01-19T23:57:00.593Z,45.08
2023-01-19T23:59:29.147Z,43.80
